Time;durP1;ratioP1;P1;durP2;ratioP2;P2;SDS_P1;SDS_P2;PMS_P1;PMS_P2;Temp;Humidity;BMP_temperature;BMP_pressure;BME280_temperature;BME280_humidity;BME280_pressure;Samples;Min_cycle;Max_cycle;Signal;HPM_P1;HPM_P2
2021/11/05 00:00:50;;;;;;;25.13;18.50;;;7.70;99.90;;;;;;5012251;28;20434;-58
2021/11/05 00:03:17;;;;;;;31.60;20.30;;;7.70;99.90;;;;;;5012545;28;20530;-58
2021/11/05 00:05:44;;;;;;;29.75;18.35;;;7.70;99.90;;;;;;5011651;28;20563;-58
2021/11/05 00:08:11;;;;;;;29.50;18.63;;;7.80;99.90;;;;;;5012332;28;20235;-58
2021/11/05 00:10:40;;;;;;;25.98;18.52;;;7.80;99.90;;;;;;5010848;28;20433;-59
2021/11/05 00:13:09;;;;;;;29.58;20.17;;;7.80;99.90;;;;;;5012126;28;20243;-58
2021/11/05 00:15:36;;;;;;;29.20;19.30;;;7.80;99.90;;;;;;5011918;28;20210;-59
2021/11/05 00:18:04;;;;;;;26.50;19.47;;;7.80;99.90;;;;;;5011952;28;20420;-59
2021/11/05 00:20:31;;;;;;;28.83;19.07;;;7.80;99.90;;;;;;5011879;28;20445;-59
2021/11/05 00:22:58;;;;;;;29.80;20.17;;;7.80;99.90;;;;;;5012099;28;20422;-58
2021/11/05 00:25:25;;;;;;;27.40;20.60;;;7.90;99.90;;;;;;5012116;28;20464;-58
2021/11/05 00:27:52;;;;;;;29.90;19.00;;;7.90;99.90;;;;;;5011326;28;20463;-58
2021/11/05 00:30:20;;;;;;;27.73;19.48;;;7.80;99.90;;;;;;5012352;28;20785;-58
2021/11/05 00:32:46;;;;;;;24.40;17.20;;;7.80;99.90;;;;;;5011439;28;20693;-58
2021/11/05 00:35:15;;;;;;;28.53;19.47;;;7.80;99.90;;;;;;5011997;28;20488;-58
2021/11/05 00:37:42;;;;;;;28.13;18.10;;;7.90;99.90;;;;;;5011262;28;20842;-58
2021/11/05 00:40:11;;;;;;;29.92;18.52;;;7.90;99.90;;;;;;5012027;28;20791;-58
2021/11/05 00:42:38;;;;;;;30.38;19.45;;;7.80;99.90;;;;;;5011468;28;20632;-58
2021/11/05 00:45:05;;;;;;;32.33;20.05;;;7.80;99.90;;;;;;5019976;28;20597;-58
2021/11/05 00:47:32;;;;;;;31.35;19.63;;;7.80;99.90;;;;;;5051123;28;20227;-58
2021/11/05 00:49:59;;;;;;;31.58;19.42;;;7.80;99.90;;;;;;5047630;28;20235;-58
2021/11/05 00:52:26;;;;;;;34.92;21.90;;;7.90;99.90;;;;;;5011996;28;20683;-59
2021/11/05 00:54:53;;;;;;;38.83;24.17;;;7.90;99.90;;;;;;5013943;28;20217;-58
2021/11/05 00:57:20;;;;;;;33.35;21.48;;;7.90;99.90;;;;;;5011509;28;20236;-58
2021/11/05 00:59:47;;;;;;;39.63;23.23;;;7.90;99.90;;;;;;5012889;28;20196;-58
2021/11/05 01:02:14;;;;;;;38.47;24.58;;;8.00;99.90;;;;;;5011764;28;20451;-58
2021/11/05 01:04:41;;;;;;;34.73;21.27;;;8.00;99.90;;;;;;5011886;28;20201;-58
2021/11/05 01:07:08;;;;;;;40.07;22.80;;;8.10;99.90;;;;;;5013334;28;20461;-58
2021/11/05 01:09:35;;;;;;;34.87;22.90;;;8.10;99.90;;;;;;5015991;28;20519;-58
2021/11/05 01:12:02;;;;;;;31.70;22.03;;;8.10;99.90;;;;;;5015165;28;21149;-58
2021/11/05 01:14:29;;;;;;;37.47;21.30;;;8.10;99.90;;;;;;5015565;28;21002;-58
2021/11/05 01:16:58;;;;;;;37.20;23.40;;;8.10;99.90;;;;;;5033812;28;20464;-58
2021/11/05 01:19:26;;;;;;;37.77;22.40;;;8.10;99.90;;;;;;5035216;28;20589;-58
2021/11/05 01:21:53;;;;;;;38.60;22.60;;;8.10;99.90;;;;;;5017135;28;20454;-58
2021/11/05 01:24:20;;;;;;;36.55;23.38;;;8.10;99.90;;;;;;5015532;28;20428;-59
2021/11/05 01:26:47;;;;;;;41.20;25.10;;;8.10;99.90;;;;;;5014736;28;20221;-58
2021/11/05 01:29:14;;;;;;;39.43;25.33;;;8.10;99.90;;;;;;5014879;28;20462;-58
2021/11/05 01:31:42;;;;;;;45.20;26.27;;;8.20;99.90;;;;;;5014950;28;20827;-58
2021/11/05 01:34:08;;;;;;;39.77;23.53;;;8.20;99.90;;;;;;5014965;28;20459;-58
2021/11/05 01:36:35;;;;;;;38.33;24.97;;;8.20;99.90;;;;;;5014819;28;20966;-58
2021/11/05 01:39:03;;;;;;;41.33;23.97;;;8.20;99.90;;;;;;5015180;28;20530;-58
2021/11/05 01:41:30;;;;;;;40.63;25.77;;;8.20;99.90;;;;;;5014531;28;20460;-58
2021/11/05 01:43:57;;;;;;;42.47;25.47;;;8.20;99.90;;;;;;5015252;28;20538;-58
2021/11/05 01:46:24;;;;;;;42.67;25.23;;;8.10;99.90;;;;;;5037140;28;20463;-58
2021/11/05 01:48:51;;;;;;;44.47;24.43;;;8.20;99.90;;;;;;5054507;28;20958;-58
2021/11/05 01:51:18;;;;;;;51.88;25.80;;;8.10;99.90;;;;;;5028299;28;20907;-59
2021/11/05 01:53:46;;;;;;;50.85;27.85;;;8.20;99.90;;;;;;5014889;28;20220;-58
2021/11/05 01:56:13;;;;;;;48.70;26.63;;;8.20;99.90;;;;;;5013988;28;20268;-59
2021/11/05 01:58:40;;;;;;;46.90;26.60;;;8.10;99.90;;;;;;5014958;28;20420;-58
2021/11/05 02:01:07;;;;;;;46.17;26.70;;;8.10;99.90;;;;;;4996692;28;20627;-58
2021/11/05 02:03:35;;;;;;;48.67;25.53;;;8.10;99.90;;;;;;5014657;28;20452;-58
2021/11/05 02:06:02;;;;;;;56.67;29.77;;;8.10;99.90;;;;;;5014109;28;20522;-58
2021/11/05 02:08:29;;;;;;;48.90;26.27;;;8.10;99.90;;;;;;5014347;28;20204;-58
2021/11/05 02:10:56;;;;;;;49.03;28.17;;;8.10;99.90;;;;;;5014074;28;20714;-58
2021/11/05 02:13:27;;;;;;;46.30;24.70;;;8.10;99.90;;;;;;4996913;28;20208;-58
2021/11/05 02:15:56;;;;;;;41.55;25.33;;;8.10;99.90;;;;;;5013756;28;20463;-58
2021/11/05 02:18:24;;;;;;;41.10;23.33;;;8.10;99.90;;;;;;5013813;28;20623;-58
2021/11/05 02:20:55;;;;;;;32.08;20.38;;;8.10;99.90;;;;;;5013869;28;20278;-58
2021/11/05 02:23:25;;;;;;;37.65;21.75;;;8.10;99.90;;;;;;5014253;28;20595;-58
2021/11/05 02:25:52;;;;;;;40.75;23.90;;;8.10;99.90;;;;;;5014151;28;20228;-59
2021/11/05 02:28:20;;;;;;;41.20;22.02;;;8.00;99.90;;;;;;5016259;28;20218;-59
2021/11/05 02:30:47;;;;;;;31.17;17.83;;;8.10;99.90;;;;;;5014815;28;20235;-58
2021/11/05 02:33:14;;;;;;;34.25;20.92;;;8.10;99.90;;;;;;5014491;28;20463;-58
2021/11/05 02:35:42;;;;;;;30.88;19.65;;;8.10;99.90;;;;;;5014168;28;20204;-58
2021/11/05 02:38:09;;;;;;;30.85;20.10;;;8.10;99.90;;;;;;5014423;28;20243;-58
2021/11/05 02:40:36;;;;;;;32.33;19.13;;;8.10;99.90;;;;;;5013836;28;20187;-59
2021/11/05 02:43:03;;;;;;;29.17;18.65;;;8.10;99.90;;;;;;5013914;28;20195;-59
2021/11/05 02:45:30;;;;;;;24.57;16.17;;;8.10;99.90;;;;;;5021949;28;20731;-58
2021/11/05 02:47:57;;;;;;;28.02;16.95;;;8.00;99.90;;;;;;5050556;28;20464;-58
2021/11/05 02:50:24;;;;;;;27.13;16.05;;;8.00;99.90;;;;;;5028346;28;20194;-58
2021/11/05 02:52:50;;;;;;;22.48;15.25;;;8.00;99.90;;;;;;5013336;28;20240;-58
2021/11/05 02:55:17;;;;;;;20.52;14.95;;;7.90;99.90;;;;;;4996144;28;20579;-58
2021/11/05 02:57:45;;;;;;;27.50;16.33;;;7.90;99.90;;;;;;5013117;28;20223;-58
2021/11/05 03:00:13;;;;;;;25.13;16.52;;;7.80;99.90;;;;;;5013533;28;20186;-58
2021/11/05 03:02:40;;;;;;;23.83;15.30;;;7.80;99.90;;;;;;5013010;28;20709;-58
2021/11/05 03:05:09;;;;;;;26.38;16.48;;;7.80;99.90;;;;;;5013602;28;20225;-58
2021/11/05 03:07:36;;;;;;;22.70;15.70;;;7.80;99.90;;;;;;5012641;28;20228;-58
2021/11/05 03:10:05;;;;;;;23.70;15.10;;;7.80;99.90;;;;;;5013422;28;20423;-58
2021/11/05 03:12:32;;;;;;;21.85;13.88;;;7.80;99.90;;;;;;5013127;28;20228;-58
2021/11/05 03:14:59;;;;;;;24.50;16.02;;;7.80;99.90;;;;;;5013245;28;20222;-58
2021/11/05 03:17:26;;;;;;;23.30;14.10;;;7.80;99.90;;;;;;5012488;28;20223;-58
2021/11/05 03:19:53;;;;;;;22.48;13.95;;;7.80;99.90;;;;;;5013487;28;20179;-58
2021/11/05 03:22:20;;;;;;;19.08;12.90;;;7.80;99.90;;;;;;4995209;28;20690;-58
2021/11/05 03:24:47;;;;;;;17.08;12.63;;;7.70;99.90;;;;;;5013156;28;20207;-58
2021/11/05 03:27:14;;;;;;;17.63;12.88;;;7.80;99.90;;;;;;5012372;28;20230;-58
2021/11/05 03:29:41;;;;;;;17.95;12.50;;;7.70;99.90;;;;;;5012416;28;20244;-58
2021/11/05 03:32:08;;;;;;;19.38;12.73;;;7.70;99.90;;;;;;5012647;28;20258;-58
2021/11/05 03:34:36;;;;;;;21.75;12.30;;;7.60;99.90;;;;;;5012830;28;20561;-58
2021/11/05 03:37:03;;;;;;;21.92;13.93;;;7.60;99.90;;;;;;5011916;28;20226;-58
2021/11/05 03:39:30;;;;;;;21.08;14.93;;;7.50;99.90;;;;;;5013260;28;20664;-58
2021/11/05 03:41:58;;;;;;;23.58;15.27;;;7.50;99.90;;;;;;5012300;28;20214;-58
2021/11/05 03:44:25;;;;;;;26.33;15.07;;;7.50;99.90;;;;;;5012849;28;20637;-58
2021/11/05 03:46:53;;;;;;;22.08;13.98;;;7.60;99.90;;;;;;5042590;28;20227;-58
2021/11/05 03:49:19;;;;;;;24.13;15.10;;;7.70;99.90;;;;;;5052478;28;20201;-58
2021/11/05 03:51:46;;;;;;;26.17;15.23;;;7.70;99.90;;;;;;5018115;28;20357;-58
2021/11/05 03:54:13;;;;;;;26.98;15.30;;;7.80;99.90;;;;;;5012635;28;20220;-58
2021/11/05 03:56:40;;;;;;;25.17;17.23;;;7.80;99.90;;;;;;5011880;28;20247;-58
2021/11/05 03:59:09;;;;;;;23.58;15.73;;;7.80;99.90;;;;;;5012767;28;20416;-58
2021/11/05 04:01:36;;;;;;;23.13;15.82;;;7.80;99.90;;;;;;5014365;28;20222;-58
2021/11/05 04:04:03;;;;;;;25.50;17.73;;;7.80;99.90;;;;;;5010866;28;20197;-58
2021/11/05 04:06:30;;;;;;;27.10;17.48;;;7.80;99.90;;;;;;5017639;28;20719;-58
2021/11/05 04:08:57;;;;;;;19.98;15.15;;;7.90;99.90;;;;;;5013213;28;20236;-58
2021/11/05 04:11:24;;;;;;;26.60;16.00;;;7.90;99.90;;;;;;5012421;28;20231;-58
2021/11/05 04:13:52;;;;;;;27.85;18.08;;;7.80;99.90;;;;;;5012865;28;20477;-58
2021/11/05 04:16:18;;;;;;;33.55;19.52;;;7.80;99.90;;;;;;5011663;28;20230;-58
2021/11/05 04:18:45;;;;;;;27.65;17.38;;;7.90;99.90;;;;;;5012217;28;20182;-58
2021/11/05 04:21:12;;;;;;;28.53;18.50;;;7.90;99.90;;;;;;5011926;28;20223;-58
2021/11/05 04:23:41;;;;;;;25.85;17.15;;;8.00;99.90;;;;;;5012500;28;20427;-58
2021/11/05 04:26:08;;;;;;;27.87;17.20;;;7.90;99.90;;;;;;5011737;28;20237;-58
2021/11/05 04:28:36;;;;;;;26.60;16.80;;;8.00;99.90;;;;;;5012160;28;20819;-58
2021/11/05 04:31:03;;;;;;;31.37;18.47;;;7.90;99.90;;;;;;5012267;28;20460;-58
2021/11/05 04:33:31;;;;;;;25.17;17.20;;;8.00;99.90;;;;;;5011967;28;20475;-58
2021/11/05 04:36:03;;;;;;;26.90;16.67;;;7.90;99.90;;;;;;5011236;28;20308;-58
2021/11/05 04:38:30;;;;;;;27.23;16.42;;;7.90;99.90;;;;;;5012034;28;20933;-58
2021/11/05 04:40:57;;;;;;;27.57;16.10;;;7.90;99.90;;;;;;5011424;28;20218;-58
2021/11/05 04:43:24;;;;;;;25.40;16.85;;;7.90;99.90;;;;;;5012249;28;20440;-58
2021/11/05 04:45:51;;;;;;;34.20;20.37;;;7.90;99.90;;;;;;5024981;28;22025;-58
2021/11/05 04:48:19;;;;;;;31.13;20.15;;;7.80;99.90;;;;;;5051603;28;20524;-58
2021/11/05 04:50:46;;;;;;;35.70;21.05;;;7.80;99.90;;;;;;5034397;28;20189;-58
2021/11/05 04:53:13;;;;;;;34.80;22.30;;;7.80;99.90;;;;;;5013883;28;20178;-58
2021/11/05 04:55:40;;;;;;;38.30;23.60;;;7.80;99.90;;;;;;5030801;28;20446;-59
2021/11/05 04:58:07;;;;;;;39.53;23.63;;;7.80;99.90;;;;;;5031396;28;20674;-59
2021/11/05 05:00:34;;;;;;;34.22;21.17;;;7.80;99.90;;;;;;5018470;28;20548;-59
2021/11/05 05:03:01;;;;;;;37.73;24.50;;;7.80;99.90;;;;;;5011996;28;20196;-58
2021/11/05 05:05:29;;;;;;;36.08;22.38;;;7.80;99.90;;;;;;5011596;28;20506;-58
2021/11/05 05:07:57;;;;;;;39.10;24.50;;;7.80;99.90;;;;;;5011057;28;20228;-58
2021/11/05 05:10:25;;;;;;;38.50;22.98;;;7.80;99.90;;;;;;5011841;28;20424;-58
2021/11/05 05:12:52;;;;;;;38.47;21.75;;;7.80;99.90;;;;;;5010934;28;20225;-58
2021/11/05 05:15:19;;;;;;;40.93;22.77;;;7.80;99.90;;;;;;5011689;28;20229;-59
2021/11/05 05:17:46;;;;;;;35.30;21.00;;;7.80;99.90;;;;;;5010787;28;20472;-58
2021/11/05 05:20:16;;;;;;;35.65;24.02;;;7.80;99.90;;;;;;5011832;28;20706;-61
2021/11/05 05:22:44;;;;;;;45.40;24.55;;;7.80;99.90;;;;;;5011013;28;20227;-62
2021/11/05 05:25:13;;;;;;;40.17;24.53;;;7.80;99.90;;;;;;5011672;28;20700;-62
2021/11/05 05:27:42;;;;;;;38.88;22.85;;;7.80;99.90;;;;;;5024852;28;20473;-62
2021/11/05 05:30:12;;;;;;;33.53;22.27;;;7.90;99.90;;;;;;5039162;28;20223;-62
2021/11/05 05:32:40;;;;;;;39.73;22.90;;;7.90;99.90;;;;;;5050588;28;20560;-62
2021/11/05 05:35:10;;;;;;;35.83;22.38;;;7.90;99.90;;;;;;5042612;28;20475;-62
2021/11/05 05:37:37;;;;;;;42.25;23.63;;;7.90;99.90;;;;;;5011581;28;20230;-61
2021/11/05 05:40:06;;;;;;;37.00;24.43;;;7.90;99.90;;;;;;5011733;28;20187;-62
2021/11/05 05:42:33;;;;;;;38.50;22.47;;;7.90;99.90;;;;;;4994123;28;20563;-62
2021/11/05 05:45:00;;;;;;;33.72;21.33;;;7.90;99.90;;;;;;5020506;28;20478;-62
2021/11/05 05:47:27;;;;;;;41.45;23.25;;;7.90;99.90;;;;;;5043334;28;20218;-62
2021/11/05 05:49:54;;;;;;;36.42;22.27;;;7.90;99.90;;;;;;5030340;28;20566;-62
2021/11/05 05:52:21;;;;;;;37.60;23.50;;;7.90;99.90;;;;;;5025595;28;20221;-61
2021/11/05 05:54:48;;;;;;;34.08;22.40;;;7.80;99.90;;;;;;5034418;28;20472;-62
2021/11/05 05:57:15;;;;;;;39.60;22.77;;;7.80;99.90;;;;;;5033815;28;20225;-62
2021/11/05 05:59:42;;;;;;;28.70;19.92;;;7.80;99.90;;;;;;5024867;28;20235;-62
2021/11/05 06:02:09;;;;;;;30.85;21.58;;;7.80;99.90;;;;;;5014391;28;20220;-61
2021/11/05 06:04:37;;;;;;;36.60;23.45;;;7.70;99.90;;;;;;5014756;28;20213;-61
2021/11/05 06:07:04;;;;;;;38.30;23.73;;;7.70;99.90;;;;;;5013939;28;20231;-61
2021/11/05 06:09:32;;;;;;;32.97;22.75;;;7.80;99.90;;;;;;5014735;28;20187;-62
2021/11/05 06:11:58;;;;;;;27.73;19.88;;;7.80;99.90;;;;;;5013934;28;20215;-62
2021/11/05 06:14:25;;;;;;;34.03;22.90;;;7.90;99.90;;;;;;5014601;28;20224;-62
2021/11/05 06:16:53;;;;;;;32.58;22.90;;;7.90;99.90;;;;;;5013853;28;20462;-62
2021/11/05 06:19:20;;;;;;;30.30;22.70;;;7.90;99.90;;;;;;5014544;28;20232;-62
2021/11/05 06:21:47;;;;;;;40.13;24.73;;;7.90;99.90;;;;;;5013450;28;20217;-62
2021/11/05 06:24:14;;;;;;;34.75;22.63;;;7.90;99.90;;;;;;5033011;28;20433;-62
2021/11/05 06:26:40;;;;;;;29.23;20.58;;;7.80;99.90;;;;;;5053674;28;20239;-61
2021/11/05 06:29:07;;;;;;;37.83;24.52;;;7.80;99.90;;;;;;5038389;28;20197;-61
2021/11/05 06:31:34;;;;;;;35.40;22.80;;;7.80;99.90;;;;;;5013723;28;20248;-62
2021/11/05 06:34:02;;;;;;;33.00;21.23;;;7.80;99.90;;;;;;5014127;28;20554;-62
2021/11/05 06:36:30;;;;;;;35.10;23.38;;;7.90;99.90;;;;;;5013244;28;20254;-62
2021/11/05 06:38:57;;;;;;;37.50;26.07;;;7.80;99.90;;;;;;5014071;28;20245;-62
2021/11/05 06:41:25;;;;;;;33.30;23.03;;;7.80;99.90;;;;;;5013489;28;20460;-62
2021/11/05 06:43:53;;;;;;;33.57;22.60;;;7.90;99.90;;;;;;4996304;28;20558;-62
2021/11/05 06:46:21;;;;;;;34.43;22.20;;;7.90;99.90;;;;;;5013098;28;21065;-62
2021/11/05 06:48:48;;;;;;;30.67;22.60;;;7.90;99.90;;;;;;5013811;28;20502;-62
2021/11/05 06:51:16;;;;;;;27.63;19.90;;;7.90;99.90;;;;;;5013277;28;20991;-61
2021/11/05 06:53:43;;;;;;;33.23;21.80;;;8.00;99.90;;;;;;5012521;28;20432;-62
2021/11/05 06:56:10;;;;;;;31.50;21.60;;;8.00;99.90;;;;;;5012966;28;20496;-62
2021/11/05 06:58:38;;;;;;;31.67;22.80;;;8.00;99.90;;;;;;5013697;28;20810;-61
2021/11/05 07:01:07;;;;;;;36.47;25.10;;;8.00;99.90;;;;;;5013256;28;20471;-62
2021/11/05 07:03:34;;;;;;;36.20;24.60;;;8.10;99.90;;;;;;5032077;28;20420;-61
2021/11/05 07:06:01;;;;;;;34.47;22.97;;;8.10;99.90;;;;;;5022291;28;20542;-62
2021/11/05 07:08:29;;;;;;;32.73;22.80;;;8.10;99.90;;;;;;5013531;28;20464;-62
2021/11/05 07:10:57;;;;;;;37.43;24.00;;;8.00;99.90;;;;;;5047680;28;20455;-62
2021/11/05 07:13:24;;;;;;;32.63;22.37;;;8.00;99.90;;;;;;5038062;28;20441;-62
2021/11/05 07:15:51;;;;;;;36.10;23.50;;;8.00;99.90;;;;;;5013257;28;20491;-61
2021/11/05 07:18:19;;;;;;;31.00;23.10;;;8.10;99.90;;;;;;5013522;28;20787;-61
2021/11/05 07:20:46;;;;;;;36.70;24.00;;;8.10;99.90;;;;;;5012895;28;21064;-62
2021/11/05 07:23:13;;;;;;;36.57;24.77;;;8.10;99.90;;;;;;5013387;28;20443;-61
2021/11/05 07:25:41;;;;;;;34.80;23.10;;;8.00;99.90;;;;;;5013616;28;20471;-62
2021/11/05 07:28:08;;;;;;;33.75;22.70;;;8.10;99.90;;;;;;5030230;28;20471;-61
2021/11/05 07:30:37;;;;;;;37.50;22.13;;;8.10;99.90;;;;;;5012392;28;20190;-62
2021/11/05 07:33:04;;;;;;;30.67;19.57;;;8.10;99.90;;;;;;5013339;28;20425;-62
2021/11/05 07:35:31;;;;;;;28.63;19.67;;;8.20;99.90;;;;;;4997732;28;20567;-62
2021/11/05 07:37:59;;;;;;;35.23;20.97;;;8.20;99.90;;;;;;5013002;28;20255;-62
2021/11/05 07:40:26;;;;;;;26.80;19.27;;;8.20;99.90;;;;;;5012927;28;20989;-62
2021/11/05 07:42:53;;;;;;;31.10;19.83;;;8.20;99.90;;;;;;5012160;28;20552;-61
2021/11/05 07:45:21;;;;;;;30.17;20.13;;;8.20;99.90;;;;;;5012915;28;20834;-62
2021/11/05 07:47:48;;;;;;;38.47;19.77;;;8.30;99.90;;;;;;5011950;28;20504;-61
2021/11/05 07:50:17;;;;;;;29.23;17.90;;;8.30;99.90;;;;;;5012662;28;20812;-61
2021/11/05 07:52:44;;;;;;;28.10;17.83;;;8.30;99.90;;;;;;4994643;28;20464;-61
2021/11/05 07:55:12;;;;;;;27.33;18.83;;;8.40;99.90;;;;;;5012640;28;20472;-61
2021/11/05 07:57:39;;;;;;;27.90;19.40;;;8.40;99.90;;;;;;5011984;28;20498;-61
2021/11/05 08:00:09;;;;;;;27.27;18.40;;;8.50;99.90;;;;;;5012665;28;20421;-62
2021/11/05 08:02:36;;;;;;;34.85;20.13;;;8.40;99.90;;;;;;5012247;28;20460;-62
2021/11/05 08:05:03;;;;;;;29.43;18.33;;;8.40;99.90;;;;;;4995254;28;20216;-61
2021/11/05 08:07:30;;;;;;;28.90;19.47;;;8.40;99.90;;;;;;5011721;28;20471;-62
2021/11/05 08:09:57;;;;;;;25.23;17.77;;;8.50;99.90;;;;;;5012336;28;20421;-62
2021/11/05 08:12:24;;;;;;;26.50;18.30;;;8.50;99.90;;;;;;5011812;28;20487;-62
2021/11/05 08:14:51;;;;;;;28.60;18.90;;;8.70;99.90;;;;;;5029614;28;20476;-62
2021/11/05 08:17:18;;;;;;;26.40;18.60;;;8.70;99.90;;;;;;5030108;28;20513;-62
2021/11/05 08:19:44;;;;;;;30.33;20.33;;;8.60;99.90;;;;;;5030842;28;20427;-62
2021/11/05 08:22:12;;;;;;;30.10;20.83;;;8.70;99.90;;;;;;4993532;28;20452;-62
2021/11/05 08:24:38;;;;;;;25.57;18.67;;;8.70;99.90;;;;;;5025651;28;20452;-62
2021/11/05 08:27:06;;;;;;;29.40;17.90;;;8.70;99.90;;;;;;5031433;28;20925;-58
2021/11/05 08:29:33;;;;;;;27.20;17.83;;;8.70;99.90;;;;;;5021264;28;20443;-58
2021/11/05 08:32:00;;;;;;;26.53;18.70;;;8.80;99.90;;;;;;5011588;28;20457;-58
2021/11/05 08:34:27;;;;;;;26.43;17.13;;;8.90;99.90;;;;;;4994529;28;20531;-58
2021/11/05 08:36:54;;;;;;;26.40;17.97;;;8.90;99.90;;;;;;5040240;28;20462;-58
2021/11/05 08:39:21;;;;;;;28.63;16.70;;;8.90;99.90;;;;;;5051645;28;20419;-58
2021/11/05 08:41:48;;;;;;;25.53;17.00;;;8.90;99.90;;;;;;5034678;28;20455;-59
2021/11/05 08:44:15;;;;;;;20.50;15.77;;;9.00;99.90;;;;;;5069781;28;20459;-58
2021/11/05 08:46:43;;;;;;;24.17;17.07;;;9.00;99.90;;;;;;5020444;28;21025;-58
2021/11/05 08:49:13;;;;;;;24.60;16.23;;;9.00;99.90;;;;;;5012516;28;20464;-58
2021/11/05 08:51:42;;;;;;;24.97;17.43;;;9.10;99.90;;;;;;4994647;28;20468;-58
2021/11/05 08:54:12;;;;;;;23.03;17.13;;;9.10;99.90;;;;;;5048627;28;20758;-58
2021/11/05 08:56:41;;;;;;;20.90;15.63;;;9.20;99.90;;;;;;5033206;28;20497;-58
2021/11/05 08:59:13;;;;;;;22.37;16.90;;;9.20;99.90;;;;;;5035582;28;20432;-58
2021/11/05 09:01:41;;;;;;;23.40;16.60;;;9.10;99.90;;;;;;5015966;28;20488;-61
2021/11/05 09:04:11;;;;;;;23.97;16.30;;;9.10;99.90;;;;;;5031462;28;20444;-61
2021/11/05 09:06:40;;;;;;;21.70;16.10;;;9.10;99.90;;;;;;5016809;28;20543;-61
2021/11/05 09:09:07;;;;;;;21.53;15.90;;;9.20;99.90;;;;;;5031837;28;20463;-61
2021/11/05 09:11:35;;;;;;;23.73;14.30;;;9.30;99.90;;;;;;5030658;28;20462;-62
2021/11/05 09:14:02;;;;;;;18.30;14.53;;;9.30;99.90;;;;;;5013342;28;20452;-61
2021/11/05 09:16:29;;;;;;;18.70;13.20;;;9.30;99.90;;;;;;5030727;28;20492;-61
2021/11/05 09:18:59;;;;;;;18.60;13.37;;;9.30;99.90;;;;;;5031313;28;20478;-61
2021/11/05 09:21:26;;;;;;;19.67;13.83;;;9.30;99.90;;;;;;5017056;28;20465;-62
2021/11/05 09:23:53;;;;;;;18.27;14.17;;;9.20;99.90;;;;;;5024649;28;20422;-62
2021/11/05 09:26:22;;;;;;;13.93;10.93;;;9.20;99.90;;;;;;5050663;28;20467;-61
2021/11/05 09:28:48;;;;;;;19.83;12.00;;;9.30;99.90;;;;;;5030126;28;20952;-61
2021/11/05 09:31:15;;;;;;;16.30;12.87;;;9.30;99.90;;;;;;5014777;28;20552;-62
2021/11/05 09:33:42;;;;;;;18.53;12.90;;;9.40;99.90;;;;;;5024433;28;20570;-62
2021/11/05 09:36:09;;;;;;;15.43;11.90;;;9.40;99.90;;;;;;5023227;28;20998;-61
2021/11/05 09:38:36;;;;;;;17.57;11.63;;;9.40;99.90;;;;;;5015268;28;20456;-61
2021/11/05 09:41:05;;;;;;;15.10;11.13;;;9.40;99.90;;;;;;5030087;28;20471;-61
2021/11/05 09:43:33;;;;;;;14.20;10.73;;;9.40;99.90;;;;;;5034999;28;20838;-61
2021/11/05 09:46:00;;;;;;;14.17;10.73;;;9.50;99.90;;;;;;5017671;28;20527;-62
2021/11/05 09:48:27;;;;;;;13.17;9.60;;;9.50;99.90;;;;;;5015113;28;20433;-62
2021/11/05 09:50:54;;;;;;;15.13;10.10;;;9.70;99.90;;;;;;5014544;28;20456;-61
2021/11/05 09:53:27;;;;;;;12.23;10.00;;;9.80;99.90;;;;;;5053922;28;20828;-61
2021/11/05 09:55:54;;;;;;;11.53;8.67;;;9.90;99.90;;;;;;5053846;28;20446;-62
2021/11/05 09:58:21;;;;;;;12.77;8.70;;;9.90;99.90;;;;;;5044813;28;20441;-62
2021/11/05 10:00:49;;;;;;;14.07;9.80;;;10.00;99.90;;;;;;5015135;28;20862;-61
2021/11/05 10:03:16;;;;;;;11.53;9.30;;;10.00;99.90;;;;;;4997430;28;20432;-61
2021/11/05 10:05:43;;;;;;;11.77;9.00;;;10.00;99.90;;;;;;4997188;28;20557;-61
2021/11/05 10:08:10;;;;;;;15.10;9.30;;;10.00;99.90;;;;;;4997163;28;20417;-62
2021/11/05 10:10:41;;;;;;;12.33;8.77;;;10.00;99.90;;;;;;5035929;28;20940;-62
2021/11/05 10:13:12;;;;;;;16.33;8.97;;;9.90;99.90;;;;;;5054597;28;20428;-61
2021/11/05 10:15:49;;;;;;;10.17;7.97;;;9.90;99.90;;;;;;5026706;28;20989;-61
2021/11/05 10:18:20;;;;;;;10.33;8.40;;;9.80;99.90;;;;;;5014372;28;20421;-62
2021/11/05 10:21:04;;;;;;;15.23;9.40;;;9.80;99.90;;;;;;5014256;28;20437;-62
2021/11/05 10:23:35;;;;;;;13.53;8.90;;;9.80;99.90;;;;;;4997153;28;20432;-61
2021/11/05 10:26:04;;;;;;;13.07;9.03;;;9.90;99.90;;;;;;5013579;28;20476;-62
2021/11/05 10:28:36;;;;;;;14.90;9.10;;;10.00;99.90;;;;;;5031087;28;20419;-61
2021/11/05 10:31:10;;;;;;;13.10;9.17;;;10.10;99.90;;;;;;5030234;28;20818;-61
2021/11/05 10:33:41;;;;;;;14.63;8.90;;;10.00;99.90;;;;;;5014362;28;20427;-62
2021/11/05 10:36:11;;;;;;;14.90;9.40;;;10.00;99.90;;;;;;5013663;28;20461;-62
2021/11/05 10:38:59;;;;;;;18.37;11.60;;;10.00;99.90;;;;;;5032144;28;20526;-61
2021/11/05 10:41:29;;;;;;;11.33;9.97;;;10.10;99.90;;;;;;5053287;28;20973;-61
2021/11/05 10:44:11;;;;;;;16.90;8.80;;;10.10;99.90;;;;;;5041562;28;20428;-61
2021/11/05 10:46:39;;;;;;;11.80;8.50;;;10.30;99.90;;;;;;5019028;28;20502;-61
2021/11/05 10:49:29;;;;;;;11.10;9.50;;;10.40;99.90;;;;;;5015933;28;20522;-61
2021/11/05 10:52:23;;;;;;;8.97;7.90;;;10.30;99.90;;;;;;5011860;28;20842;-61
2021/11/05 10:54:55;;;;;;;12.93;9.00;;;10.40;99.90;;;;;;5013735;28;20506;-61
2021/11/05 10:57:43;;;;;;;13.20;8.97;;;10.40;99.90;;;;;;4995478;28;21320;-62
2021/11/05 11:00:25;;;;;;;16.33;8.87;;;10.40;99.90;;;;;;5013949;28;20447;-61
2021/11/05 11:02:52;;;;;;;9.77;8.37;;;10.60;99.90;;;;;;5028217;28;20541;-62
2021/11/05 11:05:33;;;;;;;13.33;8.13;;;10.50;99.90;;;;;;5011890;28;20504;-61
2021/11/05 11:08:01;;;;;;;11.33;8.70;;;10.40;99.90;;;;;;4995892;28;20451;-61
2021/11/05 11:10:33;;;;;;;11.00;7.83;;;10.30;99.90;;;;;;5013638;28;20421;-61
2021/11/05 11:13:01;;;;;;;10.43;7.20;;;10.30;99.90;;;;;;5001469;28;20470;-62
2021/11/05 11:15:34;;;;;;;10.13;7.93;;;10.30;99.90;;;;;;5027313;28;20477;-61
2021/11/05 11:18:03;;;;;;;7.47;6.67;;;10.30;99.90;;;;;;5012680;28;20437;-61
2021/11/05 11:20:33;;;;;;;13.30;8.60;;;10.40;99.90;;;;;;5031575;28;20950;-61
2021/11/05 11:23:01;;;;;;;8.30;7.40;;;10.50;99.90;;;;;;5013150;28;20445;-61
2021/11/05 11:25:29;;;;;;;11.63;7.67;;;10.70;99.90;;;;;;5013122;28;20847;-61
2021/11/05 11:27:56;;;;;;;7.50;6.17;;;10.70;99.90;;;;;;5012282;28;20543;-61
2021/11/05 11:30:23;;;;;;;8.70;6.70;;;10.70;99.90;;;;;;5012843;28;20510;-62
2021/11/05 11:32:50;;;;;;;9.63;6.33;;;10.80;99.90;;;;;;5045513;28;20462;-61
2021/11/05 11:35:17;;;;;;;8.30;6.57;;;10.80;99.90;;;;;;5044183;28;20481;-61
2021/11/05 11:37:45;;;;;;;9.10;6.50;;;10.90;99.90;;;;;;5048463;28;20455;-61
2021/11/05 11:40:12;;;;;;;7.83;5.60;;;11.00;99.90;;;;;;5052609;28;20427;-62
2021/11/05 11:42:40;;;;;;;9.83;7.20;;;11.00;99.90;;;;;;5051914;28;20988;-62
2021/11/05 11:45:09;;;;;;;10.13;7.10;;;11.20;99.90;;;;;;5044647;28;20507;-61
2021/11/05 11:47:44;;;;;;;6.30;5.67;;;11.20;99.90;;;;;;5012026;28;20467;-61
2021/11/05 11:50:27;;;;;;;10.70;6.30;;;11.10;99.90;;;;;;5012109;28;20448;-62
2021/11/05 11:53:05;;;;;;;7.63;5.97;;;11.00;99.90;;;;;;4994440;28;20893;-62
2021/11/05 11:55:34;;;;;;;8.50;6.73;;;11.00;99.90;;;;;;5012540;28;20464;-62
2021/11/05 11:58:19;;;;;;;7.00;5.87;;;11.00;99.90;;;;;;5012581;28;20463;-61
2021/11/05 12:00:50;;;;;;;6.80;6.03;;;10.90;99.90;;;;;;5016108;28;20425;-61
2021/11/05 12:03:27;;;;;;;12.73;6.50;;;10.90;99.90;;;;;;4995532;28;20479;-61
2021/11/05 12:05:59;;;;;;;8.70;5.63;;;10.80;99.90;;;;;;5012151;28;20464;-61
2021/11/05 12:08:46;;;;;;;6.60;5.47;;;10.80;99.90;;;;;;5030390;28;20423;-61
2021/11/05 12:11:24;;;;;;;7.23;5.70;;;10.90;99.90;;;;;;5051683;28;20465;-62
2021/11/05 12:13:52;;;;;;;10.20;5.83;;;10.90;99.90;;;;;;5052465;28;20437;-61
2021/11/05 12:16:25;;;;;;;6.93;4.90;;;11.00;99.90;;;;;;5017607;28;20539;-62
2021/11/05 12:18:58;;;;;;;6.50;5.40;;;11.00;99.90;;;;;;4995152;28;21106;-61
2021/11/05 12:21:35;;;;;;;9.33;5.10;;;11.00;99.90;;;;;;5011753;28;20469;-61
2021/11/05 12:24:19;;;;;;;8.27;4.60;;;11.10;99.90;;;;;;5029316;28;20439;-62
2021/11/05 12:26:57;;;;;;;6.83;5.70;;;11.20;99.90;;;;;;5048372;28;21015;-61
2021/11/05 12:29:33;;;;;;;6.50;5.10;;;11.30;99.90;;;;;;5037464;28;20435;-62
2021/11/05 12:32:22;;;;;;;6.87;5.07;;;11.40;99.90;;;;;;5016812;28;20560;-62
2021/11/05 12:35:07;;;;;;;13.73;5.30;;;11.50;99.90;;;;;;5038215;28;20559;-62
2021/11/05 12:37:43;;;;;;;6.93;4.87;;;11.50;99.90;;;;;;5011230;28;20519;-61
2021/11/05 12:40:40;;;;;;;7.20;4.20;;;11.50;99.90;;;;;;5012265;28;20897;-61
2021/11/05 12:43:31;;;;;;;7.47;5.60;;;11.50;99.90;;;;;;5011737;28;20452;-61
2021/11/05 12:46:10;;;;;;;7.00;4.87;;;11.50;99.90;;;;;;4994039;28;20560;-62